Cap Leon — SVGP — position and weather

sailwx.info

Track history (hours):
 
Tides and Currents Weather Stations Pressure Air Temp Water Temp Dewpoint Dewpoint Depression Visibility Wind Speed Wind Dir Waves Ship Positions

Cap Leon

Last reported at 2018-May-24 01:37 UTC. Time now 2018-May-24 21:41 UTC.
Position N 28°34' W 095°26'.

Length 274 m; draft 9 m.

Type: Tanker. MMSI: 240124000.

Date/timePositionNaut miles runAvg speedWind from/ knotsBaromVisibWave heightAir tempDewpointWater temp
2018-May-24 01:37N 28°34' W 095°26'1 7.3
2018-May-24 01:25N 28°35' W 095°24'3 7.3
2018-May-24 00:59N 28°37' W 095°21'4 7.2
2018-May-24 00:30N 28°39' W 095°18'4 7.1
2018-May-23 23:58N 28°41' W 095°14'3 7.0
2018-May-23 23:30N 28°42' W 095°11'4 6.9
2018-May-23 23:00N 28°44' W 095°08'4 6.8
2018-May-23 22:28N 28°46' W 095°04'3 6.7
2018-May-23 22:00N 28°48' W 095°01'3 6.8
2018-May-23 21:30N 28°50' W 094°58'4 6.9
2018-May-23 20:57N 28°52' W 094°54'3 7.0
2018-May-23 20:30N 28°54' W 094°51'4 7.2
2018-May-23 20:00N 28°56' W 094°48'4 7.4
2018-May-23 19:30N 28°58' W 094°44'4 7.6
2018-May-23 19:00N 28°60' W 094°41'4 7.5
2018-May-23 18:30N 29°02' W 094°37'4 7.4
2018-May-23 18:01N 29°04' W 094°34'4 7.3
2018-May-23 17:31N 29°06' W 094°30'3 6.3
2018-May-23 16:58N 29°08' W 094°28'5 5.9
2018-May-23 16:09N 29°12' W 094°32'2 5.7
2018-May-23 15:53N 29°13' W 094°33'2 5.8
2018-May-23 15:30N 29°14' W 094°35'3 6.0
2018-May-23 14:59N 29°17' W 094°37'5 9.5
2018-May-23 14:30N 29°20' W 094°41'612.2
2018-May-23 14:00N 29°21' W 094°47'4 8.8
2018-May-23 13:30N 29°23' W 094°52'1 1.8
2018-May-23 12:46N 29°22' W 094°53'0 0.0
2018-May-23 12:28N 29°22' W 094°53'0 0.0
2018-May-23 11:40N 29°22' W 094°54'0 0.0
2018-May-23 11:28N 29°22' W 094°53'0 0.0
2018-May-23 10:58N 29°22' W 094°53'0 0.0
2018-May-23 10:19N 29°22' W 094°54'0 0.0
2018-May-23 09:58N 29°22' W 094°54'0 0.0
2018-May-23 09:22N 29°22' W 094°53'0 0.0
2018-May-23 08:40N 29°22' W 094°53'0 0.0
2018-May-23 08:10N 29°22' W 094°53'0 0.0
2018-May-23 07:40N 29°22' W 094°53'0 0.0
2018-May-23 07:28N 29°22' W 094°54'0 0.0
2018-May-23 06:46N 29°22' W 094°54'0 0.0
2018-May-23 06:28N 29°22' W 094°53'0 0.0
2018-May-23 00:37N 29°22' W 094°53'0 0.0
2018-May-22 14:28N 29°22' W 094°53'0 0.0
2018-May-22 13:16N 29°22' W 094°53'0 0.0
2018-May-22 12:58N 29°22' W 094°53'0 0.0
2018-May-22 12:28N 29°22' W 094°53'0 0.0
2018-May-22 11:58N 29°22' W 094°54'0 0.0
2018-May-22 11:28N 29°22' W 094°53'0 0.0
2018-May-22 10:55N 29°22' W 094°54'0 0.0
2018-May-22 10:28N 29°22' W 094°53'0 0.0
2018-May-22 09:58N 29°22' W 094°53'0 0.0
2018-May-22 09:28N 29°22' W 094°53'0 0.0
2018-May-22 08:58N 29°22' W 094°53'0 0.0
2018-May-22 08:28N 29°22' W 094°53'0 0.0
2018-May-22 07:58N 29°22' W 094°54'0 0.0
2018-May-22 07:28N 29°22' W 094°54'0 0.0
2018-May-22 06:52N 29°22' W 094°54'0 0.0
2018-May-22 06:28N 29°22' W 094°53'0 0.0
2018-May-22 05:46N 29°22' W 094°53'0 0.0
2018-May-22 05:25N 29°22' W 094°54'0 0.0
2018-May-22 04:49N 29°22' W 094°53'0 0.0
2018-May-22 04:16N 29°22' W 094°53'0 0.0
2018-May-21 22:28N 29°22' W 094°53'0 0.0
2018-May-21 21:58N 29°22' W 094°53'0 0.0
2018-May-21 20:16N 29°22' W 094°53'0 0.0
2018-May-21 19:55N 29°22' W 094°53'0 0.0
2018-May-21 18:31N 29°22' W 094°53'0 0.0
2018-May-21 18:13N 29°22' W 094°54'0 0.0
2018-May-21 17:46N 29°22' W 094°54'0 0.0
2018-May-21 17:10N 29°22' W 094°53'0 0.0
2018-May-21 12:10N 29°22' W 094°53'0 0.0
2018-May-21 11:55N 29°22' W 094°54'0 0.0
2018-May-21 11:25N 29°22' W 094°53'0 0.0
2018-May-21 10:55N 29°22' W 094°53'0 0.0
2018-May-21 10:07N 29°22' W 094°53'0 0.0
2018-May-21 09:49N 29°22' W 094°53'0 0.0
2018-May-21 09:25N 29°22' W 094°53'0 0.0
2018-May-21 08:37N 29°22' W 094°53'0 0.0
2018-May-21 08:28N 29°22' W 094°53'0 0.0
2018-May-21 07:40N 29°22' W 094°54'0 0.0
2018-May-21 07:28N 29°22' W 094°53'0 0.0
2018-May-21 05:55N 29°22' W 094°53'0 0.0
2018-May-21 05:25N 29°22' W 094°53'0 0.0
2018-May-21 04:58N 29°22' W 094°53'0 0.0
2018-May-21 02:10N 29°22' W 094°53'0 0.0
2018-May-21 01:58N 29°22' W 094°53'0 0.0
2018-May-20 20:28N 29°22' W 094°54'0 0.0
2018-May-20 18:07N 29°22' W 094°54'0 0.0
2018-May-20 17:46N 29°22' W 094°54'0 0.0
2018-May-20 17:28N 29°22' W 094°53'0 0.0
2018-May-20 16:55N 29°22' W 094°53'0 0.0
2018-May-20 16:19N 29°22' W 094°53'0 0.0
2018-May-20 15:58N 29°22' W 094°53'0 0.0
2018-May-20 14:06N 29°22' W 094°53'0 0.1
2018-May-20 14:00N 29°22' W 094°53'0 0.3
2018-May-20 13:30N 29°22' W 094°53'1 2.7
2018-May-20 13:00N 29°23' W 094°52'4 8.8
2018-May-20 12:30N 29°21' W 094°47'612.2
2018-May-20 12:00N 29°20' W 094°40'610.2
2018-May-20 11:28N 29°17' W 094°35'5 7.7
2018-May-20 10:49N 29°17' W 094°29'0 0.0
2018-May-19 10:57N 29°17' W 094°29'0 0.0
2018-May-19 10:30N 29°17' W 094°29'0 0.0
2018-May-19 09:45N 29°17' W 094°29'0 0.0
2018-May-19 05:33N 29°17' W 094°29'0 0.0
2018-May-19 04:27N 29°17' W 094°29'0 0.0
2018-May-19 00:48N 29°17' W 094°29'0 0.1
2018-May-19 00:30N 29°17' W 094°29'0 0.0
2018-May-18 23:57N 29°17' W 094°29'0 0.0
2018-May-18 23:27N 29°17' W 094°29'0 0.0
2018-May-18 19:33N 29°17' W 094°29'0 0.0
2018-May-18 19:18N 29°17' W 094°29'0 0.0
2018-May-18 15:06N 29°17' W 094°29'0 0.0
2018-May-18 14:51N 29°17' W 094°29'0 0.0
2018-May-18 14:24N 29°17' W 094°29'0 0.0
2018-May-18 13:57N 29°17' W 094°29'0 0.0
2018-May-18 13:27N 29°17' W 094°29'0 0.0
2018-May-18 12:54N 29°17' W 094°29'0 0.0
2018-May-18 12:30N 29°17' W 094°29'0 0.0
2018-May-18 12:00N 29°17' W 094°29'0 0.0
2018-May-18 11:30N 29°17' W 094°29'0 0.0
2018-May-18 11:00N 29°17' W 094°29'0 0.0
2018-May-18 10:30N 29°17' W 094°29'0 0.0
2018-May-18 10:00N 29°17' W 094°29'0 0.0
2018-May-18 09:30N 29°17' W 094°29'0 0.0
2018-May-18 08:57N 29°17' W 094°29'0 0.0
2018-May-18 08:30N 29°17' W 094°29'0 0.0
2018-May-18 08:00N 29°17' W 094°29'0 0.0
2018-May-18 07:30N 29°17' W 094°29'0 0.0
2018-May-18 07:00N 29°17' W 094°29'0 0.0
2018-May-18 06:30N 29°17' W 094°29'0 0.0
2018-May-18 06:00N 29°17' W 094°29'0 0.0
2018-May-18 05:30N 29°17' W 094°29'0 0.0
2018-May-18 05:00N 29°17' W 094°29'0 0.0
2018-May-18 04:30N 29°17' W 094°29'0 0.0
2018-May-18 04:00N 29°17' W 094°29'0 0.0
2018-May-18 03:30N 29°17' W 094°29'0 0.0
2018-May-18 03:00N 29°17' W 094°29'0 0.0
2018-May-18 02:30N 29°17' W 094°29'0 0.0
2018-May-18 02:00N 29°17' W 094°29'0 0.0
2018-May-18 01:30N 29°17' W 094°29'0 0.0
2018-May-18 01:00N 29°17' W 094°29'0 0.0
2018-May-18 00:30N 29°17' W 094°29'0 0.0
2018-May-18 00:00N 29°17' W 094°29'0 0.0
2018-May-17 23:27N 29°17' W 094°29'0 0.0
2018-May-17 23:00N 29°17' W 094°29'0 0.0
2018-May-17 22:30N 29°17' W 094°29'0 0.0
2018-May-17 22:00N 29°17' W 094°29'0 0.0
2018-May-17 21:30N 29°17' W 094°29'0 0.0
2018-May-17 21:00N 29°17' W 094°29'0 0.0
2018-May-17 19:45N 29°17' W 094°29'0 0.0
2018-May-17 19:30N 29°17' W 094°29'0 0.0
2018-May-17 19:00N 29°17' W 094°29'0 0.0
2018-May-17 17:18N 29°17' W 094°29'0 0.0
2018-May-17 16:48N 29°17' W 094°29'0 0.0
2018-May-17 16:27N 29°17' W 094°29'0 0.0
2018-May-17 16:00N 29°17' W 094°29'0 0.0
2018-May-17 15:21N 29°17' W 094°29'0 0.0
2018-May-17 15:00N 29°17' W 094°29'0 0.0
2018-May-17 14:27N 29°17' W 094°29'0 0.0
2018-May-17 14:00N 29°17' W 094°29'0 0.0
2018-May-17 13:30N 29°17' W 094°29'0 0.0
2018-May-17 12:57N 29°17' W 094°29'0 0.0
2018-May-17 12:30N 29°17' W 094°29'0 0.1
2018-May-17 12:00N 29°17' W 094°29'0 0.0
2018-May-17 11:30N 29°17' W 094°29'0 0.0
2018-May-17 10:57N 29°17' W 094°29'0 0.0
2018-May-17 10:27N 29°17' W 094°29'0 0.0
2018-May-17 09:51N 29°17' W 094°29'0 0.0
2018-May-17 09:27N 29°17' W 094°29'0 0.0
2018-May-17 08:57N 29°17' W 094°29'0 0.0
2018-May-17 08:30N 29°17' W 094°29'0 0.0
2018-May-17 08:00N 29°17' W 094°29'0 0.0
2018-May-17 07:30N 29°17' W 094°29'0 0.0
2018-May-17 07:00N 29°17' W 094°29'0 0.0
2018-May-17 06:30N 29°17' W 094°29'0 0.0
2018-May-17 06:00N 29°17' W 094°29'0 0.0
2018-May-17 05:30N 29°17' W 094°29'0 0.0
2018-May-17 05:00N 29°17' W 094°29'0 0.0
2018-May-17 04:30N 29°17' W 094°29'0 0.0
2018-May-17 04:00N 29°17' W 094°29'0 0.0
2018-May-17 03:30N 29°17' W 094°29'0 0.0
2018-May-17 03:00N 29°17' W 094°29'0 0.0
2018-May-17 02:30N 29°17' W 094°29'0 0.0
2018-May-17 02:00N 29°17' W 094°29'0 0.0
2018-May-17 01:30N 29°17' W 094°29'0 0.0
2018-May-17 01:00N 29°17' W 094°29'0 0.0
2018-May-17 00:30N 29°17' W 094°29'0 0.0
2018-May-17 00:00N 29°17' W 094°29'0 0.0
2018-May-16 23:30N 29°17' W 094°29'0 0.0
2018-May-16 23:00N 29°17' W 094°29'0 0.0
2018-May-16 22:30N 29°17' W 094°29'0 0.0
2018-May-16 22:00N 29°17' W 094°29'0 0.0
2018-May-16 21:30N 29°17' W 094°29'0 0.0
2018-May-16 21:00N 29°17' W 094°29'0 0.0
2018-May-16 20:30N 29°17' W 094°29'0 0.0
2018-May-16 20:00N 29°17' W 094°29'0 0.0
2018-May-16 19:30N 29°17' W 094°29'0 0.0
2018-May-16 18:57N 29°17' W 094°29'0 0.0
2018-May-16 18:30N 29°17' W 094°29'0 0.0
2018-May-16 18:00N 29°17' W 094°29'0 0.0
2018-May-16 17:21N 29°17' W 094°29'0 0.0
2018-May-16 17:00N 29°17' W 094°29'0 0.0
2018-May-16 16:15N 29°17' W 094°29'0 0.0
2018-May-16 16:00N 29°17' W 094°29'0 0.0
2018-May-16 15:30N 29°17' W 094°29'0 0.0
2018-May-16 15:00N 29°17' W 094°29'0 0.0
2018-May-16 14:30N 29°17' W 094°29'0 0.0
2018-May-16 13:57N 29°17' W 094°29'0 0.0
2018-May-16 13:30N 29°17' W 094°29'0 0.0
2018-May-16 13:00N 29°17' W 094°29'0 0.0
2018-May-16 12:30N 29°17' W 094°29'0 0.0
2018-May-16 12:00N 29°17' W 094°29'0 0.0
2018-May-16 11:30N 29°17' W 094°29'0 0.0
2018-May-16 11:00N 29°17' W 094°29'0 0.1
2018-May-16 10:30N 29°17' W 094°29'0 0.0
2018-May-16 10:00N 29°17' W 094°29'0 0.0
2018-May-16 09:30N 29°17' W 094°29'0 0.0
2018-May-16 09:00N 29°17' W 094°29'0 0.0
2018-May-16 08:27N 29°17' W 094°29'0 0.0
2018-May-16 08:00N 29°17' W 094°29'0 0.0
2018-May-16 07:30N 29°17' W 094°29'0 0.0
2018-May-16 07:00N 29°17' W 094°29'0 0.0
2018-May-16 06:30N 29°17' W 094°29'0 0.0
2018-May-16 06:00N 29°17' W 094°29'0 0.0
2018-May-16 05:30N 29°17' W 094°29'0 0.0
2018-May-16 05:00N 29°17' W 094°29'0 0.0
2018-May-16 04:30N 29°17' W 094°29'0 0.0
2018-May-16 04:00N 29°17' W 094°29'0 0.0
2018-May-16 03:30N 29°17' W 094°29'0 0.0
2018-May-16 03:00N 29°17' W 094°29'0 0.0
2018-May-16 02:30N 29°17' W 094°29'0 0.0
2018-May-16 01:57N 29°17' W 094°29'0 0.0
2018-May-16 01:30N 29°17' W 094°29'0 0.0
2018-May-16 01:00N 29°17' W 094°29'0 0.0
2018-May-16 00:30N 29°17' W 094°29'0 0.0
2018-May-16 00:00N 29°17' W 094°29'0 0.0
2018-May-15 23:30N 29°17' W 094°29'0 0.0
2018-May-15 23:00N 29°17' W 094°29'0 0.0
2018-May-15 22:27N 29°17' W 094°29'0 0.1
2018-May-15 22:00N 29°17' W 094°29'0 0.0
2018-May-15 21:30N 29°17' W 094°29'0 0.0
2018-May-15 21:00N 29°17' W 094°29'0 0.0
2018-May-15 20:30N 29°17' W 094°29'0 0.0
2018-May-15 20:00N 29°17' W 094°29'0 0.0
2018-May-15 19:30N 29°17' W 094°29'0 0.0
2018-May-15 18:57N 29°17' W 094°29'0 0.0
2018-May-15 18:30N 29°17' W 094°29'0 0.0
2018-May-15 18:00N 29°17' W 094°29'0 0.0
2018-May-15 17:30N 29°17' W 094°29'0 0.0
2018-May-15 17:00N 29°17' W 094°29'0 0.0
2018-May-15 16:30N 29°17' W 094°29'0 0.0
2018-May-15 16:00N 29°17' W 094°29'0 0.0
2018-May-15 15:30N 29°17' W 094°29'0 0.0
2018-May-15 15:00N 29°17' W 094°29'0 0.0
2018-May-15 14:30N 29°17' W 094°29'0 0.0
2018-May-15 13:57N 29°17' W 094°29'0 0.0
2018-May-15 13:30N 29°17' W 094°29'0 0.0
2018-May-15 13:00N 29°17' W 094°29'0 0.0
2018-May-15 12:30N 29°17' W 094°29'0 0.0
2018-May-15 12:00N 29°17' W 094°29'0 0.1
2018-May-15 11:30N 29°17' W 094°29'0 0.1
2018-May-15 11:00N 29°17' W 094°29'0 0.0
2018-May-15 10:30N 29°17' W 094°29'0 0.1
2018-May-15 10:00N 29°17' W 094°29'0 0.0
2018-May-15 09:30N 29°17' W 094°29'0 0.0
2018-May-15 09:00N 29°17' W 094°29'0 0.0
2018-May-15 08:30N 29°17' W 094°29'0 0.0
2018-May-15 08:00N 29°17' W 094°29'0 0.0
2018-May-15 07:30N 29°17' W 094°29'0 0.0
2018-May-15 06:57N 29°17' W 094°29'0 0.0
2018-May-15 06:21N 29°17' W 094°29'0 0.0
2018-May-15 06:00N 29°17' W 094°29'0 0.0
2018-May-15 05:18N 29°17' W 094°29'0 0.0
2018-May-15 05:00N 29°17' W 094°29'0 0.0
2018-May-15 04:30N 29°17' W 094°29'0 0.0
2018-May-15 04:00N 29°17' W 094°29'0 0.0
2018-May-15 03:30N 29°17' W 094°29'0 0.1
2018-May-15 03:00N 29°17' W 094°29'0 0.1
2018-May-15 02:30N 29°17' W 094°29'0 0.1
2018-May-15 02:00N 29°17' W 094°29'0 0.0
2018-May-15 01:30N 29°17' W 094°29'0 0.1
2018-May-15 01:00N 29°17' W 094°29'0 0.1
2018-May-15 00:30N 29°17' W 094°29'0 0.0
2018-May-15 00:00N 29°17' W 094°29'0 0.0
2018-May-14 23:30N 29°17' W 094°29'0 0.0
2018-May-14 23:00N 29°17' W 094°29'0 0.0
2018-May-14 22:30N 29°17' W 094°29'0 0.0
2018-May-14 22:00N 29°17' W 094°29'0 0.0
2018-May-14 21:30N 29°17' W 094°29'0 0.0
2018-May-14 21:00N 29°17' W 094°29'0 0.0
2018-May-14 20:30N 29°17' W 094°29'0 0.0
2018-May-14 20:00N 29°17' W 094°29'0 0.0
2018-May-14 19:27N 29°17' W 094°29'0 0.0
2018-May-14 19:00N 29°17' W 094°29'0 0.0
2018-May-14 18:30N 29°17' W 094°29'0 0.0
2018-May-14 18:00N 29°17' W 094°29'0 0.0
2018-May-14 17:27N 29°17' W 094°29'0 0.0
2018-May-14 16:57N 29°17' W 094°29'0 0.0
2018-May-14 16:30N 29°17' W 094°29'0 0.0
2018-May-14 15:51N 29°17' W 094°29'0 0.0
2018-May-14 15:30N 29°17' W 094°29'0 0.0
2018-May-14 14:48N 29°17' W 094°29'0 0.0
2018-May-14 14:30N 29°17' W 094°29'0 0.0
2018-May-14 14:00N 29°17' W 094°29'0 0.0
2018-May-14 13:27N 29°17' W 094°29'0 0.0
2018-May-14 13:00N 29°17' W 094°29'0 0.0
2018-May-14 12:30N 29°17' W 094°29'0 0.0
2018-May-14 11:54N 29°17' W 094°29'0 0.0
2018-May-14 11:27N 29°17' W 094°29'0 0.0
2018-May-14 10:57N 29°17' W 094°29'0 0.0
2018-May-14 10:03N 29°17' W 094°29'0 0.1
2018-May-14 09:57N 29°17' W 094°29'0 0.0
2018-May-14 09:27N 29°17' W 094°29'0 0.0
2018-May-14 08:54N 29°17' W 094°29'  
Track history (hours):
 
Tides and Currents Weather Stations Pressure Air Temp Water Temp Dewpoint Dewpoint Depression Visibility Wind Speed Wind Dir Waves Ship Positions

Cap Leon

Last reported at 2018-May-24 01:37 UTC. Time now 2018-May-24 21:41 UTC.
Position N 28°34' W 095°26'.

Length 274 m; draft 9 m.

Type: Tanker. MMSI: 240124000.

Date/timePositionNaut miles runAvg speedWind from/ knotsBaromVisibWave heightAir tempDewpointWater temp
2018-May-24 01:37N 28°34' W 095°26'1 7.3
2018-May-24 01:25N 28°35' W 095°24'3 7.3
2018-May-24 00:59N 28°37' W 095°21'4 7.2
2018-May-24 00:30N 28°39' W 095°18'4 7.1
2018-May-23 23:58N 28°41' W 095°14'3 7.0
2018-May-23 23:30N 28°42' W 095°11'4 6.9
2018-May-23 23:00N 28°44' W 095°08'4 6.8
2018-May-23 22:28N 28°46' W 095°04'3 6.7
2018-May-23 22:00N 28°48' W 095°01'3 6.8
2018-May-23 21:30N 28°50' W 094°58'4 6.9
2018-May-23 20:57N 28°52' W 094°54'3 7.0
2018-May-23 20:30N 28°54' W 094°51'4 7.2
2018-May-23 20:00N 28°56' W 094°48'4 7.4
2018-May-23 19:30N 28°58' W 094°44'4 7.6
2018-May-23 19:00N 28°60' W 094°41'4 7.5
2018-May-23 18:30N 29°02' W 094°37'4 7.4
2018-May-23 18:01N 29°04' W 094°34'4 7.3
2018-May-23 17:31N 29°06' W 094°30'3 6.3
2018-May-23 16:58N 29°08' W 094°28'5 5.9
2018-May-23 16:09N 29°12' W 094°32'2 5.7
2018-May-23 15:53N 29°13' W 094°33'2 5.8
2018-May-23 15:30N 29°14' W 094°35'3 6.0
2018-May-23 14:59N 29°17' W 094°37'5 9.5
2018-May-23 14:30N 29°20' W 094°41'612.2
2018-May-23 14:00N 29°21' W 094°47'4 8.8
2018-May-23 13:30N 29°23' W 094°52'1 1.8
2018-May-23 12:46N 29°22' W 094°53'0 0.0
2018-May-23 12:28N 29°22' W 094°53'0 0.0
2018-May-23 11:40N 29°22' W 094°54'0 0.0
2018-May-23 11:28N 29°22' W 094°53'0 0.0
2018-May-23 10:58N 29°22' W 094°53'0 0.0
2018-May-23 10:19N 29°22' W 094°54'0 0.0
2018-May-23 09:58N 29°22' W 094°54'0 0.0
2018-May-23 09:22N 29°22' W 094°53'0 0.0
2018-May-23 08:40N 29°22' W 094°53'0 0.0
2018-May-23 08:10N 29°22' W 094°53'0 0.0
2018-May-23 07:40N 29°22' W 094°53'0 0.0
2018-May-23 07:28N 29°22' W 094°54'0 0.0
2018-May-23 06:46N 29°22' W 094°54'0 0.0
2018-May-23 06:28N 29°22' W 094°53'0 0.0
2018-May-23 00:37N 29°22' W 094°53'0 0.0
2018-May-22 14:28N 29°22' W 094°53'0 0.0
2018-May-22 13:16N 29°22' W 094°53'0 0.0
2018-May-22 12:58N 29°22' W 094°53'0 0.0
2018-May-22 12:28N 29°22' W 094°53'0 0.0
2018-May-22 11:58N 29°22' W 094°54'0 0.0
2018-May-22 11:28N 29°22' W 094°53'0 0.0
2018-May-22 10:55N 29°22' W 094°54'0 0.0
2018-May-22 10:28N 29°22' W 094°53'0 0.0
2018-May-22 09:58N 29°22' W 094°53'0 0.0
2018-May-22 09:28N 29°22' W 094°53'0 0.0
2018-May-22 08:58N 29°22' W 094°53'0 0.0
2018-May-22 08:28N 29°22' W 094°53'0 0.0
2018-May-22 07:58N 29°22' W 094°54'0 0.0
2018-May-22 07:28N 29°22' W 094°54'0 0.0
2018-May-22 06:52N 29°22' W 094°54'0 0.0
2018-May-22 06:28N 29°22' W 094°53'0 0.0
2018-May-22 05:46N 29°22' W 094°53'0 0.0
2018-May-22 05:25N 29°22' W 094°54'0 0.0
2018-May-22 04:49N 29°22' W 094°53'0 0.0
2018-May-22 04:16N 29°22' W 094°53'0 0.0
2018-May-21 22:28N 29°22' W 094°53'0 0.0
2018-May-21 21:58N 29°22' W 094°53'0 0.0
2018-May-21 20:16N 29°22' W 094°53'0 0.0
2018-May-21 19:55N 29°22' W 094°53'0 0.0
2018-May-21 18:31N 29°22' W 094°53'0 0.0
2018-May-21 18:13N 29°22' W 094°54'0 0.0
2018-May-21 17:46N 29°22' W 094°54'0 0.0
2018-May-21 17:10N 29°22' W 094°53'0 0.0
2018-May-21 12:10N 29°22' W 094°53'0 0.0
2018-May-21 11:55N 29°22' W 094°54'0 0.0
2018-May-21 11:25N 29°22' W 094°53'0 0.0
2018-May-21 10:55N 29°22' W 094°53'0 0.0
2018-May-21 10:07N 29°22' W 094°53'0 0.0
2018-May-21 09:49N 29°22' W 094°53'0 0.0
2018-May-21 09:25N 29°22' W 094°53'0 0.0
2018-May-21 08:37N 29°22' W 094°53'0 0.0
2018-May-21 08:28N 29°22' W 094°53'0 0.0
2018-May-21 07:40N 29°22' W 094°54'0 0.0
2018-May-21 07:28N 29°22' W 094°53'0 0.0
2018-May-21 05:55N 29°22' W 094°53'0 0.0
2018-May-21 05:25N 29°22' W 094°53'0 0.0
2018-May-21 04:58N 29°22' W 094°53'0 0.0
2018-May-21 02:10N 29°22' W 094°53'0 0.0
2018-May-21 01:58N 29°22' W 094°53'0 0.0
2018-May-20 20:28N 29°22' W 094°54'0 0.0
2018-May-20 18:07N 29°22' W 094°54'0 0.0
2018-May-20 17:46N 29°22' W 094°54'0 0.0
2018-May-20 17:28N 29°22' W 094°53'0 0.0
2018-May-20 16:55N 29°22' W 094°53'0 0.0
2018-May-20 16:19N 29°22' W 094°53'0 0.0
2018-May-20 15:58N 29°22' W 094°53'0 0.0
2018-May-20 14:06N 29°22' W 094°53'0 0.1
2018-May-20 14:00N 29°22' W 094°53'0 0.3
2018-May-20 13:30N 29°22' W 094°53'1 2.7
2018-May-20 13:00N 29°23' W 094°52'4 8.8
2018-May-20 12:30N 29°21' W 094°47'612.2
2018-May-20 12:00N 29°20' W 094°40'610.2
2018-May-20 11:28N 29°17' W 094°35'5 7.7
2018-May-20 10:49N 29°17' W 094°29'0 0.0
2018-May-19 10:57N 29°17' W 094°29'0 0.0
2018-May-19 10:30N 29°17' W 094°29'0 0.0
2018-May-19 09:45N 29°17' W 094°29'0 0.0
2018-May-19 05:33N 29°17' W 094°29'0 0.0
2018-May-19 04:27N 29°17' W 094°29'0 0.0
2018-May-19 00:48N 29°17' W 094°29'0 0.1
2018-May-19 00:30N 29°17' W 094°29'0 0.0
2018-May-18 23:57N 29°17' W 094°29'0 0.0
2018-May-18 23:27N 29°17' W 094°29'0 0.0
2018-May-18 19:33N 29°17' W 094°29'0 0.0
2018-May-18 19:18N 29°17' W 094°29'0 0.0
2018-May-18 15:06N 29°17' W 094°29'0 0.0
2018-May-18 14:51N 29°17' W 094°29'0 0.0
2018-May-18 14:24N 29°17' W 094°29'0 0.0
2018-May-18 13:57N 29°17' W 094°29'0 0.0
2018-May-18 13:27N 29°17' W 094°29'0 0.0
2018-May-18 12:54N 29°17' W 094°29'0 0.0
2018-May-18 12:30N 29°17' W 094°29'0 0.0
2018-May-18 12:00N 29°17' W 094°29'0 0.0
2018-May-18 11:30N 29°17' W 094°29'0 0.0
2018-May-18 11:00N 29°17' W 094°29'0 0.0
2018-May-18 10:30N 29°17' W 094°29'0 0.0
2018-May-18 10:00N 29°17' W 094°29'0 0.0
2018-May-18 09:30N 29°17' W 094°29'0 0.0
2018-May-18 08:57N 29°17' W 094°29'0 0.0
2018-May-18 08:30N 29°17' W 094°29'0 0.0
2018-May-18 08:00N 29°17' W 094°29'0 0.0
2018-May-18 07:30N 29°17' W 094°29'0 0.0
2018-May-18 07:00N 29°17' W 094°29'0 0.0
2018-May-18 06:30N 29°17' W 094°29'0 0.0
2018-May-18 06:00N 29°17' W 094°29'0 0.0
2018-May-18 05:30N 29°17' W 094°29'0 0.0
2018-May-18 05:00N 29°17' W 094°29'0 0.0
2018-May-18 04:30N 29°17' W 094°29'0 0.0
2018-May-18 04:00N 29°17' W 094°29'0 0.0
2018-May-18 03:30N 29°17' W 094°29'0 0.0
2018-May-18 03:00N 29°17' W 094°29'0 0.0
2018-May-18 02:30N 29°17' W 094°29'0 0.0
2018-May-18 02:00N 29°17' W 094°29'0 0.0
2018-May-18 01:30N 29°17' W 094°29'0 0.0
2018-May-18 01:00N 29°17' W 094°29'0 0.0
2018-May-18 00:30N 29°17' W 094°29'0 0.0
2018-May-18 00:00N 29°17' W 094°29'0 0.0
2018-May-17 23:27N 29°17' W 094°29'0 0.0
2018-May-17 23:00N 29°17' W 094°29'0 0.0
2018-May-17 22:30N 29°17' W 094°29'0 0.0
2018-May-17 22:00N 29°17' W 094°29'0 0.0
2018-May-17 21:30N 29°17' W 094°29'0 0.0
2018-May-17 21:00N 29°17' W 094°29'0 0.0
2018-May-17 19:45N 29°17' W 094°29'0 0.0
2018-May-17 19:30N 29°17' W 094°29'0 0.0
2018-May-17 19:00N 29°17' W 094°29'0 0.0
2018-May-17 17:18N 29°17' W 094°29'0 0.0
2018-May-17 16:48N 29°17' W 094°29'0 0.0
2018-May-17 16:27N 29°17' W 094°29'0 0.0
2018-May-17 16:00N 29°17' W 094°29'0 0.0
2018-May-17 15:21N 29°17' W 094°29'0 0.0
2018-May-17 15:00N 29°17' W 094°29'0 0.0
2018-May-17 14:27N 29°17' W 094°29'0 0.0
2018-May-17 14:00N 29°17' W 094°29'0 0.0
2018-May-17 13:30N 29°17' W 094°29'0 0.0
2018-May-17 12:57N 29°17' W 094°29'0 0.0
2018-May-17 12:30N 29°17' W 094°29'0 0.1
2018-May-17 12:00N 29°17' W 094°29'0 0.0
2018-May-17 11:30N 29°17' W 094°29'0 0.0
2018-May-17 10:57N 29°17' W 094°29'0 0.0
2018-May-17 10:27N 29°17' W 094°29'0 0.0
2018-May-17 09:51N 29°17' W 094°29'0 0.0
2018-May-17 09:27N 29°17' W 094°29'0 0.0
2018-May-17 08:57N 29°17' W 094°29'0 0.0
2018-May-17 08:30N 29°17' W 094°29'0 0.0
2018-May-17 08:00N 29°17' W 094°29'0 0.0
2018-May-17 07:30N 29°17' W 094°29'0 0.0
2018-May-17 07:00N 29°17' W 094°29'0 0.0
2018-May-17 06:30N 29°17' W 094°29'0 0.0
2018-May-17 06:00N 29°17' W 094°29'0 0.0
2018-May-17 05:30N 29°17' W 094°29'0 0.0
2018-May-17 05:00N 29°17' W 094°29'0 0.0
2018-May-17 04:30N 29°17' W 094°29'0 0.0
2018-May-17 04:00N 29°17' W 094°29'0 0.0
2018-May-17 03:30N 29°17' W 094°29'0 0.0
2018-May-17 03:00N 29°17' W 094°29'0 0.0
2018-May-17 02:30N 29°17' W 094°29'0 0.0
2018-May-17 02:00N 29°17' W 094°29'0 0.0
2018-May-17 01:30N 29°17' W 094°29'0 0.0
2018-May-17 01:00N 29°17' W 094°29'0 0.0
2018-May-17 00:30N 29°17' W 094°29'0 0.0
2018-May-17 00:00N 29°17' W 094°29'0 0.0
2018-May-16 23:30N 29°17' W 094°29'0 0.0
2018-May-16 23:00N 29°17' W 094°29'0 0.0
2018-May-16 22:30N 29°17' W 094°29'0 0.0
2018-May-16 22:00N 29°17' W 094°29'0 0.0
2018-May-16 21:30N 29°17' W 094°29'0 0.0
2018-May-16 21:00N 29°17' W 094°29'0 0.0
2018-May-16 20:30N 29°17' W 094°29'0 0.0
2018-May-16 20:00N 29°17' W 094°29'0 0.0
2018-May-16 19:30N 29°17' W 094°29'0 0.0
2018-May-16 18:57N 29°17' W 094°29'0 0.0
2018-May-16 18:30N 29°17' W 094°29'0 0.0
2018-May-16 18:00N 29°17' W 094°29'0 0.0
2018-May-16 17:21N 29°17' W 094°29'0 0.0
2018-May-16 17:00N 29°17' W 094°29'0 0.0
2018-May-16 16:15N 29°17' W 094°29'0 0.0
2018-May-16 16:00N 29°17' W 094°29'0 0.0
2018-May-16 15:30N 29°17' W 094°29'0 0.0
2018-May-16 15:00N 29°17' W 094°29'0 0.0
2018-May-16 14:30N 29°17' W 094°29'0 0.0
2018-May-16 13:57N 29°17' W 094°29'0 0.0
2018-May-16 13:30N 29°17' W 094°29'0 0.0
2018-May-16 13:00N 29°17' W 094°29'0 0.0
2018-May-16 12:30N 29°17' W 094°29'0 0.0
2018-May-16 12:00N 29°17' W 094°29'0 0.0
2018-May-16 11:30N 29°17' W 094°29'0 0.0
2018-May-16 11:00N 29°17' W 094°29'0 0.1
2018-May-16 10:30N 29°17' W 094°29'0 0.0
2018-May-16 10:00N 29°17' W 094°29'0 0.0
2018-May-16 09:30N 29°17' W 094°29'0 0.0
2018-May-16 09:00N 29°17' W 094°29'0 0.0
2018-May-16 08:27N 29°17' W 094°29'0 0.0
2018-May-16 08:00N 29°17' W 094°29'0 0.0
2018-May-16 07:30N 29°17' W 094°29'0 0.0
2018-May-16 07:00N 29°17' W 094°29'0 0.0
2018-May-16 06:30N 29°17' W 094°29'0 0.0
2018-May-16 06:00N 29°17' W 094°29'0 0.0
2018-May-16 05:30N 29°17' W 094°29'0 0.0
2018-May-16 05:00N 29°17' W 094°29'0 0.0
2018-May-16 04:30N 29°17' W 094°29'0 0.0
2018-May-16 04:00N 29°17' W 094°29'0 0.0
2018-May-16 03:30N 29°17' W 094°29'0 0.0
2018-May-16 03:00N 29°17' W 094°29'0 0.0
2018-May-16 02:30N 29°17' W 094°29'0 0.0
2018-May-16 01:57N 29°17' W 094°29'0 0.0
2018-May-16 01:30N 29°17' W 094°29'0 0.0
2018-May-16 01:00N 29°17' W 094°29'0 0.0
2018-May-16 00:30N 29°17' W 094°29'0 0.0
2018-May-16 00:00N 29°17' W 094°29'0 0.0
2018-May-15 23:30N 29°17' W 094°29'0 0.0
2018-May-15 23:00N 29°17' W 094°29'0 0.0
2018-May-15 22:27N 29°17' W 094°29'0 0.1
2018-May-15 22:00N 29°17' W 094°29'0 0.0
2018-May-15 21:30N 29°17' W 094°29'0 0.0
2018-May-15 21:00N 29°17' W 094°29'0 0.0
2018-May-15 20:30N 29°17' W 094°29'0 0.0
2018-May-15 20:00N 29°17' W 094°29'0 0.0
2018-May-15 19:30N 29°17' W 094°29'0 0.0
2018-May-15 18:57N 29°17' W 094°29'0 0.0
2018-May-15 18:30N 29°17' W 094°29'0 0.0
2018-May-15 18:00N 29°17' W 094°29'0 0.0
2018-May-15 17:30N 29°17' W 094°29'0 0.0
2018-May-15 17:00N 29°17' W 094°29'0 0.0
2018-May-15 16:30N 29°17' W 094°29'0 0.0
2018-May-15 16:00N 29°17' W 094°29'0 0.0
2018-May-15 15:30N 29°17' W 094°29'0 0.0
2018-May-15 15:00N 29°17' W 094°29'0 0.0
2018-May-15 14:30N 29°17' W 094°29'0 0.0
2018-May-15 13:57N 29°17' W 094°29'0 0.0
2018-May-15 13:30N 29°17' W 094°29'0 0.0
2018-May-15 13:00N 29°17' W 094°29'0 0.0
2018-May-15 12:30N 29°17' W 094°29'0 0.0
2018-May-15 12:00N 29°17' W 094°29'0 0.1
2018-May-15 11:30N 29°17' W 094°29'0 0.1
2018-May-15 11:00N 29°17' W 094°29'0 0.0
2018-May-15 10:30N 29°17' W 094°29'0 0.1
2018-May-15 10:00N 29°17' W 094°29'0 0.0
2018-May-15 09:30N 29°17' W 094°29'0 0.0
2018-May-15 09:00N 29°17' W 094°29'0 0.0
2018-May-15 08:30N 29°17' W 094°29'0 0.0
2018-May-15 08:00N 29°17' W 094°29'0 0.0
2018-May-15 07:30N 29°17' W 094°29'0 0.0
2018-May-15 06:57N 29°17' W 094°29'0 0.0
2018-May-15 06:21N 29°17' W 094°29'0 0.0
2018-May-15 06:00N 29°17' W 094°29'0 0.0
2018-May-15 05:18N 29°17' W 094°29'0 0.0
2018-May-15 05:00N 29°17' W 094°29'0 0.0
2018-May-15 04:30N 29°17' W 094°29'0 0.0
2018-May-15 04:00N 29°17' W 094°29'0 0.0
2018-May-15 03:30N 29°17' W 094°29'0 0.1
2018-May-15 03:00N 29°17' W 094°29'0 0.1
2018-May-15 02:30N 29°17' W 094°29'0 0.1
2018-May-15 02:00N 29°17' W 094°29'0 0.0
2018-May-15 01:30N 29°17' W 094°29'0 0.1
2018-May-15 01:00N 29°17' W 094°29'0 0.1
2018-May-15 00:30N 29°17' W 094°29'0 0.0
2018-May-15 00:00N 29°17' W 094°29'0 0.0
2018-May-14 23:30N 29°17' W 094°29'0 0.0
2018-May-14 23:00N 29°17' W 094°29'0 0.0
2018-May-14 22:30N 29°17' W 094°29'0 0.0
2018-May-14 22:00N 29°17' W 094°29'0 0.0
2018-May-14 21:30N 29°17' W 094°29'0 0.0
2018-May-14 21:00N 29°17' W 094°29'0 0.0
2018-May-14 20:30N 29°17' W 094°29'0 0.0
2018-May-14 20:00N 29°17' W 094°29'0 0.0
2018-May-14 19:27N 29°17' W 094°29'0 0.0
2018-May-14 19:00N 29°17' W 094°29'0 0.0
2018-May-14 18:30N 29°17' W 094°29'0 0.0
2018-May-14 18:00N 29°17' W 094°29'0 0.0
2018-May-14 17:27N 29°17' W 094°29'0 0.0
2018-May-14 16:57N 29°17' W 094°29'0 0.0
2018-May-14 16:30N 29°17' W 094°29'0 0.0
2018-May-14 15:51N 29°17' W 094°29'0 0.0
2018-May-14 15:30N 29°17' W 094°29'0 0.0
2018-May-14 14:48N 29°17' W 094°29'0 0.0
2018-May-14 14:30N 29°17' W 094°29'0 0.0
2018-May-14 14:00N 29°17' W 094°29'0 0.0
2018-May-14 13:27N 29°17' W 094°29'0 0.0
2018-May-14 13:00N 29°17' W 094°29'0 0.0
2018-May-14 12:30N 29°17' W 094°29'0 0.0
2018-May-14 11:54N 29°17' W 094°29'0 0.0
2018-May-14 11:27N 29°17' W 094°29'0 0.0
2018-May-14 10:57N 29°17' W 094°29'0 0.0
2018-May-14 10:03N 29°17' W 094°29'0 0.1
2018-May-14 09:57N 29°17' W 094°29'0 0.0
2018-May-14 09:27N 29°17' W 094°29'0 0.0
2018-May-14 08:54N 29°17' W 094°29'  

Dump ship's entire track history